createdAt,value
2024-03-12T00:01:48.007Z,9.00
2024-03-12T00:04:15.468Z,9.00
2024-03-12T00:06:43.345Z,9.00
2024-03-12T00:09:11.098Z,8.90
2024-03-12T00:11:38.780Z,8.90
2024-03-12T00:14:06.149Z,9.00
2024-03-12T00:16:35.284Z,8.90
2024-03-12T00:19:04.089Z,8.90
2024-03-12T00:21:31.905Z,8.80
2024-03-12T00:23:59.935Z,8.80
2024-03-12T00:26:29.301Z,8.80
2024-03-12T00:28:56.939Z,8.80
2024-03-12T00:31:25.687Z,8.70
2024-03-12T00:33:53.469Z,8.70
2024-03-12T00:36:21.072Z,8.70
2024-03-12T00:38:48.477Z,8.70
2024-03-12T00:41:15.938Z,8.60
2024-03-12T00:43:43.776Z,8.60
2024-03-12T00:46:11.964Z,8.50
2024-03-12T00:48:39.465Z,8.60
2024-03-12T00:51:10.053Z,8.50
2024-03-12T00:53:37.477Z,8.50
2024-03-12T00:56:05.130Z,8.50
2024-03-12T00:58:35.002Z,8.50
2024-03-12T01:01:04.863Z,8.50
2024-03-12T01:03:32.579Z,8.50
2024-03-12T01:06:00.050Z,8.50
2024-03-12T01:08:27.379Z,8.60
2024-03-12T01:10:54.782Z,8.50
2024-03-12T01:13:22.329Z,8.60
2024-03-12T01:15:54.254Z,8.60
2024-03-12T01:18:21.712Z,8.60
2024-03-12T01:20:51.590Z,8.60
2024-03-12T01:23:19.087Z,8.60
2024-03-12T01:25:47.612Z,8.60
2024-03-12T01:28:15.049Z,8.60
2024-03-12T01:30:42.696Z,8.60
2024-03-12T01:33:11.632Z,8.60
2024-03-12T01:35:42.087Z,8.60
2024-03-12T01:38:11.470Z,8.60
2024-03-12T01:40:40.308Z,8.60
2024-03-12T01:43:08.804Z,8.60
2024-03-12T01:45:37.247Z,8.60
2024-03-12T01:48:09.066Z,8.60
2024-03-12T01:50:37.911Z,8.60
2024-03-12T01:53:09.499Z,8.60
2024-03-12T01:55:45.675Z,8.60
2024-03-12T01:58:17.821Z,8.60
2024-03-12T02:00:46.716Z,8.60
2024-03-12T02:03:15.166Z,8.70
2024-03-12T02:05:43.315Z,8.70
2024-03-12T02:08:12.119Z,8.70
2024-03-12T02:10:39.571Z,8.70
2024-03-12T02:13:07.376Z,8.70
2024-03-12T02:15:35.404Z,8.70
2024-03-12T02:18:03.195Z,8.70
2024-03-12T02:20:31.011Z,8.70
2024-03-12T02:23:00.386Z,8.70
2024-03-12T02:25:28.091Z,8.70
2024-03-12T02:27:57.645Z,8.70
2024-03-12T02:30:25.155Z,8.70
2024-03-12T02:32:53.505Z,8.70
2024-03-12T02:35:21.178Z,8.70
2024-03-12T02:37:48.542Z,8.70
2024-03-12T02:40:17.109Z,8.70
2024-03-12T02:42:45.902Z,8.70
2024-03-12T02:45:18.010Z,8.60
2024-03-12T02:47:47.230Z,8.50
2024-03-12T02:50:17.042Z,8.60
2024-03-12T02:52:46.435Z,8.50
2024-03-12T02:55:14.303Z,8.50
2024-03-12T02:57:41.869Z,8.50
2024-03-12T03:00:14.538Z,8.40
2024-03-12T03:02:44.203Z,8.50
2024-03-12T03:05:12.336Z,8.40
2024-03-12T03:07:41.508Z,8.40
2024-03-12T03:10:11.337Z,8.30
2024-03-12T03:12:39.336Z,8.40
2024-03-12T03:15:07.028Z,8.40
2024-03-12T03:17:34.505Z,8.40
2024-03-12T03:20:01.894Z,8.30
2024-03-12T03:22:29.317Z,8.30
2024-03-12T03:24:56.919Z,8.30
2024-03-12T03:27:24.291Z,8.30
2024-03-12T03:29:52.299Z,8.30
2024-03-12T03:32:22.118Z,8.30
2024-03-12T03:34:49.960Z,8.30
2024-03-12T03:37:17.378Z,8.30
2024-03-12T03:39:44.833Z,8.30
2024-03-12T03:42:12.234Z,8.30
2024-03-12T03:44:39.597Z,8.30
2024-03-12T03:47:07.270Z,8.30
2024-03-12T03:49:35.044Z,8.30
2024-03-12T03:52:02.611Z,8.30
2024-03-12T03:54:30.040Z,8.30
2024-03-12T03:56:57.449Z,8.30
2024-03-12T03:59:26.147Z,8.40
2024-03-12T04:01:53.696Z,8.30
2024-03-12T04:04:21.102Z,8.30
2024-03-12T04:06:51.103Z,8.40
2024-03-12T04:09:21.451Z,8.40
2024-03-12T04:11:50.136Z,8.30
2024-03-12T04:14:19.204Z,8.30
2024-03-12T04:16:46.892Z,8.30
2024-03-12T04:19:14.855Z,8.40
2024-03-12T04:21:45.104Z,8.40
2024-03-12T04:24:14.916Z,8.40
2024-03-12T04:26:46.676Z,8.40
2024-03-12T04:29:14.097Z,8.40
2024-03-12T04:31:42.916Z,8.40
2024-03-12T04:34:10.489Z,8.40
2024-03-12T04:36:38.275Z,8.40
2024-03-12T04:39:24.739Z,8.40
2024-03-12T04:41:52.176Z,8.50
2024-03-12T04:44:19.788Z,8.50
2024-03-12T04:46:47.378Z,8.40
2024-03-12T04:49:14.764Z,8.40
2024-03-12T04:51:42.192Z,8.40
2024-03-12T04:54:10.773Z,8.40
2024-03-12T04:56:38.149Z,8.40
2024-03-12T04:59:05.832Z,8.40
2024-03-12T05:01:33.520Z,8.40
2024-03-12T05:04:08.120Z,8.40
2024-03-12T05:06:40.991Z,8.30
2024-03-12T05:09:09.642Z,8.30
2024-03-12T05:11:38.445Z,8.40
2024-03-12T05:14:07.158Z,8.40
2024-03-12T05:16:34.484Z,8.40
2024-03-12T05:19:01.957Z,8.30
2024-03-12T05:21:31.747Z,8.30
2024-03-12T05:23:59.828Z,8.30
2024-03-12T05:26:27.314Z,8.30
2024-03-12T05:28:55.527Z,8.30
2024-03-12T05:31:30.762Z,8.30
2024-03-12T05:34:01.112Z,8.30
2024-03-12T05:36:42.244Z,8.20
2024-03-12T05:39:20.285Z,8.20
2024-03-12T05:42:11.182Z,8.20
2024-03-12T05:44:57.708Z,8.20
2024-03-12T05:47:47.733Z,8.10
2024-03-12T05:50:18.203Z,8.10
2024-03-12T05:52:49.384Z,8.10
2024-03-12T05:55:17.135Z,8.10
2024-03-12T05:57:48.073Z,8.10
2024-03-12T06:00:15.734Z,8.00
2024-03-12T06:02:43.278Z,8.00
2024-03-12T06:05:13.996Z,8.00
2024-03-12T06:07:50.685Z,8.00
2024-03-12T06:10:18.248Z,7.90
2024-03-12T06:12:45.810Z,7.90
2024-03-12T06:15:13.191Z,7.90
2024-03-12T06:17:40.498Z,7.80
2024-03-12T06:20:11.477Z,7.80
2024-03-12T06:22:39.541Z,7.80
2024-03-12T06:25:10.636Z,7.80
2024-03-12T06:27:41.800Z,7.80
2024-03-12T06:30:09.648Z,7.80
2024-03-12T06:32:38.354Z,7.80
2024-03-12T06:35:06.433Z,7.80
2024-03-12T06:37:34.246Z,7.70
2024-03-12T06:40:05.369Z,7.70
2024-03-12T06:42:32.878Z,7.70
2024-03-12T06:45:02.346Z,7.70
2024-03-12T06:47:33.244Z,7.70
2024-03-12T06:50:00.630Z,7.70
2024-03-12T06:52:28.216Z,7.70
2024-03-12T06:54:56.343Z,7.70
2024-03-12T06:57:24.104Z,7.70
2024-03-12T06:59:51.840Z,7.80
2024-03-12T07:02:19.437Z,7.80
2024-03-12T07:04:50.134Z,7.80
2024-03-12T07:07:21.221Z,7.80
2024-03-12T07:09:52.298Z,7.80
2024-03-12T07:12:20.197Z,7.80
2024-03-12T07:14:56.097Z,7.80
2024-03-12T07:17:24.355Z,7.80
2024-03-12T07:19:52.147Z,7.90
2024-03-12T07:22:19.675Z,7.80
2024-03-12T07:24:48.456Z,7.80
2024-03-12T07:27:15.867Z,7.90
2024-03-12T07:29:44.607Z,7.90
2024-03-12T07:32:14.430Z,7.90
2024-03-12T07:34:47.560Z,8.00
2024-03-12T07:37:27.851Z,8.00
2024-03-12T07:39:58.484Z,7.90
2024-03-12T07:42:28.699Z,8.00
2024-03-12T07:45:06.208Z,8.00
2024-03-12T07:47:46.091Z,8.10
2024-03-12T07:50:18.639Z,8.10
2024-03-12T07:53:08.331Z,8.10
2024-03-12T07:55:42.626Z,8.10
2024-03-12T08:01:30.435Z,8.20
2024-03-12T08:03:59.892Z,8.20
2024-03-12T08:06:28.232Z,8.20
2024-03-12T08:09:04.251Z,8.20
2024-03-12T08:11:32.865Z,8.20
2024-03-12T08:14:01.000Z,8.30
2024-03-12T08:16:32.288Z,8.30
2024-03-12T08:19:05.867Z,8.30
2024-03-12T08:21:42.906Z,8.30
2024-03-12T08:24:12.409Z,8.40
2024-03-12T08:26:40.180Z,8.40
2024-03-12T08:29:16.346Z,8.50
2024-03-12T08:31:59.392Z,8.50
2024-03-12T08:34:38.488Z,8.50
2024-03-12T08:37:15.685Z,8.50
2024-03-12T08:39:46.388Z,8.60
2024-03-12T08:42:21.124Z,8.60
2024-03-12T08:44:52.383Z,8.60
2024-03-12T08:47:25.345Z,8.60
2024-03-12T08:49:53.147Z,8.70
2024-03-12T08:52:30.572Z,8.70
2024-03-12T08:55:07.480Z,8.80
2024-03-12T08:57:36.042Z,8.80
2024-03-12T09:00:18.236Z,8.80
2024-03-12T09:02:49.217Z,8.80
2024-03-12T09:05:18.566Z,8.90
2024-03-12T09:07:46.614Z,8.90
2024-03-12T09:10:17.543Z,8.90
2024-03-12T09:12:48.347Z,8.90
2024-03-12T09:15:29.966Z,9.00
2024-03-12T09:17:58.207Z,9.00
2024-03-12T09:20:26.074Z,9.00
2024-03-12T09:22:56.870Z,9.00
2024-03-12T09:25:25.907Z,9.10
2024-03-12T09:27:53.531Z,9.10
2024-03-12T09:30:28.830Z,9.10
2024-03-12T09:33:00.008Z,9.20
2024-03-12T09:35:33.460Z,9.20
2024-03-12T09:38:02.662Z,9.20
2024-03-12T09:40:30.882Z,9.30
2024-03-12T09:43:02.091Z,9.30
2024-03-12T09:45:30.578Z,9.30
2024-03-12T09:47:58.726Z,9.40
2024-03-12T09:50:30.801Z,9.40
2024-03-12T09:53:17.619Z,9.40
2024-03-12T09:55:52.252Z,9.40
2024-03-12T09:58:20.044Z,9.50
2024-03-12T10:00:47.850Z,9.50
2024-03-12T10:03:20.867Z,9.60
2024-03-12T10:06:02.764Z,9.60
2024-03-12T10:08:33.108Z,9.60
2024-03-12T10:11:03.699Z,9.70
2024-03-12T10:13:53.510Z,9.80
2024-03-12T10:16:21.168Z,9.80
2024-03-12T10:18:48.595Z,9.80
2024-03-12T10:21:23.766Z,9.90
2024-03-12T10:23:52.130Z,9.90
2024-03-12T10:26:20.722Z,10.00
2024-03-12T10:28:51.832Z,10.00
2024-03-12T10:31:22.563Z,10.10
2024-03-12T10:33:51.521Z,10.10
2024-03-12T10:36:34.505Z,10.20
2024-03-12T10:39:07.934Z,10.20
2024-03-12T10:41:35.627Z,10.30
2024-03-12T10:44:13.863Z,10.30
2024-03-12T10:46:45.022Z,10.30
2024-03-12T10:49:22.010Z,10.40
2024-03-12T10:51:56.483Z,10.40
2024-03-12T10:54:25.357Z,10.50
2024-03-12T10:56:52.965Z,10.50
2024-03-12T10:59:22.682Z,10.50
2024-03-12T11:01:51.575Z,10.60
2024-03-12T11:04:20.327Z,10.60
2024-03-12T11:06:49.507Z,10.70
2024-03-12T11:09:29.302Z,10.70
2024-03-12T11:11:57.141Z,10.70
2024-03-12T11:14:29.400Z,10.70
2024-03-12T11:17:01.575Z,10.80
2024-03-12T11:19:30.837Z,10.80
2024-03-12T11:22:11.981Z,10.80
2024-03-12T11:24:49.592Z,10.90
2024-03-12T11:27:35.553Z,10.90
2024-03-12T11:30:09.470Z,10.90
2024-03-12T11:32:44.078Z,10.90
2024-03-12T11:35:18.136Z,11.00
2024-03-12T11:38:01.382Z,11.00
2024-03-12T11:40:40.683Z,11.00
2024-03-12T11:43:12.614Z,11.10
2024-03-12T11:45:48.874Z,11.10
2024-03-12T11:48:21.298Z,11.20
2024-03-12T11:50:59.600Z,11.20
2024-03-12T11:53:35.694Z,11.20
2024-03-12T11:56:12.658Z,11.30
2024-03-12T11:59:03.134Z,11.30
2024-03-12T12:01:35.307Z,11.30
2024-03-12T12:04:13.285Z,11.40
2024-03-12T12:06:41.364Z,11.40
2024-03-12T12:09:10.425Z,11.40
2024-03-12T12:11:42.119Z,11.50
2024-03-12T12:14:11.209Z,11.50
2024-03-12T12:16:43.447Z,11.50
2024-03-12T12:19:16.624Z,11.50
2024-03-12T12:21:51.053Z,11.50
2024-03-12T12:24:18.996Z,11.60
2024-03-12T12:26:47.306Z,11.60
2024-03-12T12:29:15.927Z,11.70
2024-03-12T12:31:43.779Z,11.70
2024-03-12T12:34:12.382Z,11.70
2024-03-12T12:36:44.370Z,11.70
2024-03-12T12:39:13.453Z,11.70
2024-03-12T12:41:45.054Z,11.80
2024-03-12T12:44:18.402Z,11.80
2024-03-12T12:46:49.222Z,11.80
2024-03-12T12:49:16.845Z,11.90
2024-03-12T12:51:48.544Z,11.90
2024-03-12T12:54:17.123Z,11.80
2024-03-12T12:56:47.599Z,11.90
2024-03-12T12:59:21.199Z,11.90
2024-03-12T13:01:50.082Z,11.90
2024-03-12T13:04:28.868Z,12.00
2024-03-12T13:06:58.221Z,12.00
2024-03-12T13:09:34.195Z,12.00
2024-03-12T13:12:03.834Z,12.10
2024-03-12T13:14:32.620Z,12.10
2024-03-12T13:17:00.928Z,12.10
2024-03-12T13:19:28.805Z,12.20
2024-03-12T13:21:57.595Z,12.20
2024-03-12T13:24:25.562Z,12.30
2024-03-12T13:26:53.009Z,12.30
2024-03-12T13:29:20.455Z,12.30
2024-03-12T13:31:49.380Z,12.30
2024-03-12T13:34:17.324Z,12.30
2024-03-12T13:36:45.788Z,12.30
2024-03-12T13:39:16.481Z,12.30
2024-03-12T13:41:44.061Z,12.30
2024-03-12T13:44:12.911Z,12.40
2024-03-12T13:46:44.035Z,12.40
2024-03-12T13:49:19.259Z,12.40
2024-03-12T13:51:47.795Z,12.40
2024-03-12T13:54:16.080Z,12.40
2024-03-12T13:56:45.170Z,12.40
2024-03-12T13:59:13.876Z,12.50
2024-03-12T14:01:42.382Z,12.50
2024-03-12T14:04:12.827Z,12.50
2024-03-12T14:06:41.184Z,12.50
2024-03-12T14:09:13.323Z,12.60
2024-03-12T14:11:41.592Z,12.60
2024-03-12T14:14:09.962Z,12.60
2024-03-12T14:16:37.722Z,12.60
2024-03-12T14:19:05.661Z,12.60
2024-03-12T14:21:34.294Z,12.60
2024-03-12T14:24:03.975Z,12.60
2024-03-12T14:26:31.729Z,12.60
2024-03-12T14:28:59.179Z,12.60
2024-03-12T14:31:27.119Z,12.60
2024-03-12T14:33:54.597Z,12.60
2024-03-12T14:36:22.056Z,12.60
2024-03-12T14:38:53.068Z,12.60
2024-03-12T14:41:23.464Z,12.70
2024-03-12T14:43:51.119Z,12.70
2024-03-12T14:46:19.088Z,12.60
2024-03-12T14:48:47.137Z,12.60
2024-03-12T14:51:14.963Z,12.70
2024-03-12T14:53:42.912Z,12.70
2024-03-12T14:56:10.724Z,12.70
2024-03-12T14:58:38.051Z,12.70
2024-03-12T15:01:07.786Z,12.70
2024-03-12T15:03:37.460Z,12.70
2024-03-12T15:06:05.162Z,12.80
2024-03-12T15:08:33.829Z,12.80
2024-03-12T15:11:03.735Z,12.80
2024-03-12T15:13:34.532Z,12.80
2024-03-12T15:16:02.131Z,12.80
2024-03-12T15:18:30.272Z,12.80
2024-03-12T15:20:58.498Z,12.80
2024-03-12T15:23:26.154Z,12.80
2024-03-12T15:25:54.604Z,12.80
2024-03-12T15:28:23.213Z,12.80
2024-03-12T15:30:50.699Z,12.80
2024-03-12T15:33:19.479Z,12.80
2024-03-12T15:35:47.230Z,12.90
2024-03-12T15:38:15.077Z,12.90
2024-03-12T15:40:42.731Z,13.00
2024-03-12T15:43:10.513Z,13.00
2024-03-12T15:45:38.283Z,13.10
2024-03-12T15:48:09.004Z,13.20
2024-03-12T15:50:41.491Z,13.20
2024-03-12T15:53:12.855Z,13.20
2024-03-12T15:55:41.477Z,13.30
2024-03-12T15:58:09.105Z,13.30
2024-03-12T16:00:37.451Z,13.30
2024-03-12T16:03:05.713Z,13.30
2024-03-12T16:05:33.092Z,13.30
2024-03-12T16:08:04.459Z,13.30
2024-03-12T16:10:33.107Z,13.40
2024-03-12T16:13:06.096Z,13.40
2024-03-12T16:15:33.897Z,13.40
2024-03-12T16:18:01.351Z,13.40
2024-03-12T16:20:28.904Z,13.30
2024-03-12T16:22:56.273Z,13.40
2024-03-12T16:25:23.702Z,13.40
2024-03-12T16:27:51.165Z,13.40
2024-03-12T16:30:18.985Z,13.40
2024-03-12T16:32:46.630Z,13.40
2024-03-12T16:35:15.918Z,13.40
2024-03-12T16:37:44.763Z,13.40
2024-03-12T16:40:12.656Z,13.40
2024-03-12T16:42:40.246Z,13.50
2024-03-12T16:45:09.766Z,13.50
2024-03-12T16:47:37.255Z,13.60
2024-03-12T16:50:09.041Z,13.60
2024-03-12T16:52:36.666Z,13.60
2024-03-12T16:55:04.647Z,13.60
2024-03-12T16:57:34.776Z,13.60
2024-03-12T17:00:04.960Z,13.60
2024-03-12T17:02:43.254Z,13.60
2024-03-12T17:05:17.387Z,13.60
2024-03-12T17:07:49.958Z,13.60
2024-03-12T17:10:18.807Z,13.60
2024-03-12T17:12:46.787Z,13.60
2024-03-12T17:15:16.905Z,13.60
2024-03-12T17:17:45.281Z,13.60
2024-03-12T17:20:14.781Z,13.60
2024-03-12T17:22:43.012Z,13.60
2024-03-12T17:25:13.276Z,13.60
2024-03-12T17:27:42.505Z,13.60
2024-03-12T17:30:12.023Z,13.60
2024-03-12T17:32:40.612Z,13.60
2024-03-12T17:35:12.615Z,13.60
2024-03-12T17:37:45.043Z,13.60
2024-03-12T17:40:17.079Z,13.60
2024-03-12T17:42:48.425Z,13.60
2024-03-12T17:45:17.298Z,13.60
2024-03-12T17:47:47.416Z,13.60
2024-03-12T17:50:20.257Z,13.60
2024-03-12T17:52:49.936Z,13.60
2024-03-12T17:57:49.533Z,13.60
2024-03-12T18:00:19.934Z,13.60
2024-03-12T18:02:49.447Z,13.60
2024-03-12T18:05:18.715Z,13.60
2024-03-12T18:07:47.839Z,13.60
2024-03-12T18:10:17.496Z,13.60
2024-03-12T18:15:18.075Z,13.60
2024-03-12T18:17:46.675Z,13.60
2024-03-12T18:20:21.165Z,13.50
2024-03-12T18:22:49.033Z,13.60
2024-03-12T18:25:16.617Z,13.60
2024-03-12T18:27:51.289Z,13.50
2024-03-12T18:30:19.793Z,13.60
2024-03-12T18:32:50.175Z,13.50
2024-03-12T18:35:19.992Z,13.60
2024-03-12T18:37:47.770Z,13.60
2024-03-12T18:40:19.510Z,13.50
2024-03-12T18:42:47.937Z,13.50
2024-03-12T18:45:19.776Z,13.50
2024-03-12T18:47:51.571Z,13.50
2024-03-12T18:50:21.087Z,13.50
2024-03-12T18:52:48.801Z,13.50
2024-03-12T18:55:18.272Z,13.40
2024-03-12T18:57:46.800Z,13.40
2024-03-12T19:00:19.357Z,13.40
2024-03-12T19:02:49.071Z,13.40
2024-03-12T19:05:21.543Z,13.40
2024-03-12T19:07:53.614Z,13.40
2024-03-12T19:10:21.872Z,13.40
2024-03-12T19:12:50.497Z,13.40
2024-03-12T19:15:22.689Z,13.40
2024-03-12T19:17:52.744Z,13.30
2024-03-12T19:20:21.023Z,13.30
2024-03-12T19:22:50.731Z,13.20
2024-03-12T19:25:20.054Z,13.20
2024-03-12T19:27:50.340Z,13.20
2024-03-12T19:30:25.864Z,13.10
2024-03-12T19:32:54.054Z,13.00
2024-03-12T19:35:22.602Z,13.10
2024-03-12T19:37:50.829Z,13.00
2024-03-12T19:40:21.100Z,13.10
2024-03-12T19:42:49.924Z,13.00
2024-03-12T19:45:19.772Z,13.00
2024-03-12T19:47:48.236Z,13.00
2024-03-12T19:50:25.753Z,13.00
2024-03-12T19:52:54.624Z,13.00
2024-03-12T19:55:30.353Z,13.00
2024-03-12T19:58:02.585Z,12.90
2024-03-12T20:00:34.656Z,12.90
2024-03-12T20:03:06.070Z,12.90
2024-03-12T20:05:36.076Z,12.90
2024-03-12T20:08:05.604Z,12.90
2024-03-12T20:10:33.689Z,12.90
2024-03-12T20:13:05.703Z,12.90
2024-03-12T20:15:38.013Z,12.90
2024-03-12T20:18:07.531Z,12.80
2024-03-12T20:20:35.183Z,12.80
2024-03-12T20:23:02.929Z,12.90
2024-03-12T20:25:32.814Z,12.90
2024-03-12T20:28:00.254Z,12.80
2024-03-12T20:30:28.637Z,12.80
2024-03-12T20:33:00.631Z,12.80
2024-03-12T20:35:29.305Z,12.80
2024-03-12T20:37:57.124Z,12.70
2024-03-12T20:40:26.971Z,12.70
2024-03-12T20:42:55.991Z,12.70
2024-03-12T20:45:23.631Z,12.70
2024-03-12T20:47:51.419Z,12.70
2024-03-12T20:50:21.960Z,12.70
2024-03-12T20:52:50.140Z,12.70
2024-03-12T20:55:19.548Z,12.70
2024-03-12T20:57:49.277Z,12.70
2024-03-12T21:00:18.932Z,12.70
2024-03-12T21:02:48.902Z,12.70
2024-03-12T21:05:19.040Z,12.70
2024-03-12T21:07:46.705Z,12.70
2024-03-12T21:10:14.405Z,12.70
2024-03-12T21:12:46.395Z,12.70
2024-03-12T21:15:17.139Z,12.70
2024-03-12T21:17:45.868Z,12.70
2024-03-12T21:20:19.456Z,12.70
2024-03-12T21:22:47.065Z,12.80
2024-03-12T21:25:14.630Z,12.80
2024-03-12T21:27:42.881Z,12.80
2024-03-12T21:30:14.145Z,12.70
2024-03-12T21:32:42.200Z,12.80
2024-03-12T21:35:10.619Z,12.70
2024-03-12T21:37:39.563Z,12.70
2024-03-12T21:40:12.853Z,12.70
2024-03-12T21:42:43.798Z,12.80
2024-03-12T21:45:12.769Z,12.70
2024-03-12T21:47:46.003Z,12.70
2024-03-12T21:50:16.326Z,12.80
2024-03-12T21:52:44.554Z,12.70
2024-03-12T21:55:17.507Z,12.70
2024-03-12T21:57:45.539Z,12.70
2024-03-12T22:00:20.480Z,12.70
2024-03-12T22:02:50.261Z,12.70
2024-03-12T22:05:20.320Z,12.70
2024-03-12T22:07:50.235Z,12.70
2024-03-12T22:10:18.190Z,12.70
2024-03-12T22:12:46.301Z,12.70
2024-03-12T22:15:16.719Z,12.70
2024-03-12T22:17:46.051Z,12.70
2024-03-12T22:20:19.141Z,12.70
2024-03-12T22:22:50.443Z,12.70
2024-03-12T22:25:19.405Z,12.70
2024-03-12T22:27:49.027Z,12.70
2024-03-12T22:30:21.406Z,12.70
2024-03-12T22:32:49.318Z,12.70
2024-03-12T22:35:16.971Z,12.70
2024-03-12T22:37:48.685Z,12.70
2024-03-12T22:40:17.416Z,12.70
2024-03-12T22:42:44.884Z,12.70
2024-03-12T22:45:18.714Z,12.70
2024-03-12T22:47:46.708Z,12.80
2024-03-12T22:50:15.958Z,12.70
2024-03-12T22:52:48.073Z,12.80
2024-03-12T22:55:16.749Z,12.70
2024-03-12T22:57:45.208Z,12.70
2024-03-12T23:00:41.578Z,12.70
2024-03-12T23:03:14.005Z,12.70
2024-03-12T23:05:42.754Z,12.70
2024-03-12T23:08:15.780Z,12.60
2024-03-12T23:10:47.237Z,12.60
2024-03-12T23:13:17.226Z,12.60
2024-03-12T23:15:45.678Z,12.60
2024-03-12T23:18:13.426Z,12.60
2024-03-12T23:20:46.156Z,12.60
2024-03-12T23:23:13.916Z,12.50
2024-03-12T23:25:42.846Z,12.50
2024-03-12T23:28:11.943Z,12.50
2024-03-12T23:30:39.750Z,12.50
2024-03-12T23:33:09.235Z,12.50
2024-03-12T23:35:37.775Z,12.50
2024-03-12T23:38:06.540Z,12.50
2024-03-12T23:40:34.071Z,12.50
2024-03-12T23:43:02.248Z,12.50
2024-03-12T23:45:29.693Z,12.50
2024-03-12T23:47:58.393Z,12.50
2024-03-12T23:50:26.076Z,12.50
2024-03-12T23:52:53.560Z,12.50
2024-03-12T23:55:21.244Z,12.50
2024-03-12T23:57:49.758Z,12.50
